createdAt,value
2023-06-07T00:03:36.770Z,99.5
2023-06-07T00:08:21.233Z,99.5
2023-06-07T00:13:05.290Z,99.5
2023-06-07T00:17:49.509Z,99.5
2023-06-07T00:27:17.823Z,99.5
2023-06-07T00:32:02.043Z,99.5
2023-06-07T00:36:46.142Z,99.5
2023-06-07T00:41:30.358Z,99.5
2023-06-07T00:46:14.467Z,99.5
2023-06-07T00:50:58.688Z,99.5
2023-06-07T00:55:42.894Z,99.5
2023-06-07T01:00:27.020Z,99.5
2023-06-07T01:05:11.219Z,99.5
2023-06-07T01:09:55.517Z,99.5
2023-06-07T01:14:39.738Z,99.5
2023-06-07T01:19:23.849Z,99.5
2023-06-07T01:24:08.064Z,99.5
2023-06-07T01:28:52.170Z,99.5
2023-06-07T01:33:36.382Z,99.5
2023-06-07T01:38:20.600Z,99.5
2023-06-07T01:43:04.701Z,99.5
2023-06-07T01:47:49.411Z,99.5
2023-06-07T01:52:33.521Z,99.5
2023-06-07T01:57:17.727Z,99.5
2023-06-07T02:02:02.042Z,99.5
2023-06-07T02:06:46.301Z,99.5
2023-06-07T02:11:30.354Z,99.5
2023-06-07T02:25:42.900Z,99.5
2023-06-07T02:30:27.104Z,99.5
2023-06-07T02:35:11.250Z,99.5
2023-06-07T02:39:55.456Z,99.5
2023-06-07T02:44:40.040Z,99.5
2023-06-07T02:49:24.249Z,99.5
2023-06-07T02:58:52.573Z,99.5
2023-06-07T03:03:36.781Z,99.5
2023-06-07T03:08:21.091Z,99.5
2023-06-07T03:13:05.302Z,99.5
2023-06-07T03:17:49.415Z,99.5
2023-06-07T03:22:33.622Z,99.5
2023-06-07T03:27:17.743Z,99.5
2023-06-07T03:36:46.156Z,99.5
2023-06-07T03:41:30.770Z,99.5
2023-06-07T03:46:14.988Z,99.5
2023-06-07T03:50:59.331Z,99.5
2023-06-07T03:55:43.500Z,99.5
2023-06-07T04:00:27.608Z,99.5
2023-06-07T04:05:11.819Z,99.5
2023-06-07T04:09:55.921Z,99.5
2023-06-07T04:14:40.137Z,99.5
2023-06-07T04:19:24.359Z,99.5
2023-06-07T04:24:08.465Z,99.5
2023-06-07T04:33:36.776Z,99.5
2023-06-07T04:38:20.983Z,99.5
2023-06-07T04:43:05.205Z,99.5
2023-06-07T04:52:33.528Z,99.5
2023-06-07T04:57:17.625Z,99.5
2023-06-07T05:02:02.038Z,98
2023-06-07T05:06:46.185Z,96
2023-06-07T05:11:30.359Z,94.5
2023-06-07T05:16:14.489Z,94
2023-06-07T05:20:58.680Z,93
2023-06-07T05:30:27.007Z,93.5
2023-06-07T05:35:11.211Z,93
2023-06-07T05:39:55.434Z,92.5
2023-06-07T05:44:39.522Z,92.5
2023-06-07T05:49:23.742Z,91.5
2023-06-07T05:54:07.840Z,90
2023-06-07T05:58:52.065Z,88.5
2023-06-07T06:03:36.269Z,89
2023-06-07T06:08:20.518Z,89.5
2023-06-07T06:13:04.699Z,89
2023-06-07T06:17:48.409Z,87
2023-06-07T06:22:31.225Z,86
2023-06-07T06:27:14.512Z,86
2023-06-07T06:31:57.724Z,85
2023-06-07T06:36:41.025Z,83
2023-06-07T06:46:07.582Z,81
2023-06-07T06:50:50.865Z,80.5
2023-06-07T07:00:17.280Z,82.5
2023-06-07T07:05:00.587Z,84
2023-06-07T07:09:43.900Z,83
2023-06-07T07:14:27.139Z,83
2023-06-07T07:19:10.423Z,82
2023-06-07T07:23:53.708Z,80.5
2023-06-07T07:28:36.937Z,79.5
2023-06-07T07:33:19.772Z,79
2023-06-07T07:38:03.058Z,78
2023-06-07T07:42:46.276Z,75.5
2023-06-07T08:01:39.335Z,64.5
2023-06-07T08:20:32.444Z,62
2023-06-07T08:25:15.657Z,62
2023-06-07T08:34:42.179Z,58
2023-06-07T08:44:08.722Z,57.5
2023-06-07T08:48:52.085Z,60.5
2023-06-07T08:53:35.308Z,59.5
2023-06-07T09:03:01.834Z,59.5
2023-06-07T09:07:45.074Z,59
2023-06-07T09:12:28.355Z,60.5
2023-06-07T09:17:11.590Z,58
2023-06-07T09:21:54.869Z,54.5
2023-06-07T09:26:38.093Z,56.5
2023-06-07T09:31:21.394Z,53
2023-06-07T09:36:04.725Z,50.5
2023-06-07T09:40:47.923Z,52
2023-06-07T09:45:31.257Z,54
2023-06-07T09:54:57.755Z,52.5
2023-06-07T09:59:40.972Z,53.5
2023-06-07T10:09:07.473Z,52
2023-06-07T10:13:50.791Z,51.5
2023-06-07T10:18:34.086Z,51.5
2023-06-07T10:23:17.395Z,49.5
2023-06-07T10:28:01.522Z,46.5
2023-06-07T10:42:14.050Z,45.5
2023-06-07T10:46:58.164Z,47
2023-06-07T10:51:42.378Z,48.5
2023-06-07T10:56:26.591Z,48
2023-06-07T11:15:23.246Z,46.5
2023-06-07T11:24:51.571Z,41.5
2023-06-07T11:30:37.277Z,42.5
2023-06-07T11:44:49.791Z,37.5
2023-06-07T11:54:18.123Z,34.5
2023-06-07T11:59:02.215Z,37
2023-06-07T12:55:52.401Z,27
2023-06-07T13:10:04.898Z,34
2023-06-07T13:19:33.221Z,33.5
2023-06-07T13:29:01.544Z,27.5
2023-06-07T13:38:29.967Z,28
2023-06-07T13:43:14.089Z,29.5
2023-06-07T13:47:58.313Z,31.5
2023-06-07T13:52:42.500Z,30
2023-06-07T14:02:10.812Z,29
2023-06-07T14:06:54.494Z,26.5
2023-06-07T14:11:37.746Z,27.5
2023-06-07T14:16:21.059Z,27.5
2023-06-07T14:21:04.271Z,31.5
2023-06-07T14:30:30.791Z,31.5
2023-06-07T14:49:23.928Z,29.5
2023-06-07T14:54:07.163Z,27
2023-06-07T15:08:16.974Z,26
2023-06-07T15:13:00.285Z,29
2023-06-07T15:22:26.808Z,25.5
2023-06-07T15:27:10.017Z,27
2023-06-07T15:36:36.647Z,27
2023-06-07T15:41:19.857Z,27
2023-06-07T15:46:03.164Z,29
2023-06-07T15:55:29.685Z,26.5
2023-06-07T16:00:13.000Z,26
2023-06-07T16:14:25.529Z,28
2023-06-07T16:19:09.640Z,27
2023-06-07T16:23:53.915Z,27
2023-06-07T16:28:38.075Z,30
2023-06-07T16:33:22.478Z,29.5
2023-06-07T16:42:50.917Z,31
2023-06-07T16:47:35.013Z,37.5
2023-06-07T17:06:31.761Z,43.5
2023-06-07T17:16:00.088Z,45
2023-06-07T17:25:28.416Z,47
2023-06-07T17:34:56.742Z,49
2023-06-07T17:39:41.052Z,50.5
2023-06-07T17:49:09.403Z,54.5
2023-06-07T17:53:53.571Z,56.5
2023-06-07T17:58:37.797Z,58
2023-06-07T18:03:21.903Z,59
2023-06-07T18:12:50.235Z,61.5
2023-06-07T18:17:34.454Z,61
2023-06-07T18:22:18.651Z,59.5
2023-06-07T18:31:47.015Z,58
2023-06-07T18:36:31.092Z,58
2023-06-07T18:41:15.361Z,59.5
2023-06-07T18:50:43.625Z,61
2023-06-07T18:55:27.833Z,61
2023-06-07T19:04:56.163Z,62.5
2023-06-07T19:09:40.375Z,63.5
2023-06-07T19:19:08.693Z,65.5
2023-06-07T19:28:37.019Z,65.5
2023-06-07T19:33:21.227Z,66
2023-06-07T19:38:05.340Z,67
2023-06-07T19:42:49.567Z,67.5
2023-06-07T19:47:33.852Z,68
2023-06-07T19:57:02.302Z,69.5
2023-06-07T20:01:46.390Z,69
2023-06-07T20:06:30.761Z,69.5
2023-06-07T20:11:14.914Z,70
2023-06-07T20:15:59.025Z,70
2023-06-07T20:25:27.460Z,71.5
2023-06-07T20:39:40.090Z,72.5
2023-06-07T20:44:24.492Z,72.5
2023-06-07T20:49:08.610Z,73
2023-06-07T20:53:52.818Z,73.5
2023-06-07T20:58:36.927Z,73
2023-06-07T21:03:21.135Z,72.5
2023-06-07T21:08:05.351Z,73
2023-06-07T21:12:49.476Z,72.5
2023-06-07T21:17:33.680Z,73
2023-06-07T21:22:17.820Z,73
2023-06-07T21:27:02.009Z,73.5
2023-06-07T21:31:46.206Z,74
2023-06-07T21:37:31.811Z,74.5
2023-06-07T21:42:16.026Z,75
2023-06-07T21:47:00.328Z,74.5
2023-06-07T21:51:44.635Z,74.5
2023-06-07T21:56:28.849Z,75
2023-06-07T22:01:13.091Z,75.5
2023-06-07T22:05:57.180Z,75
2023-06-07T22:10:41.390Z,75.5
2023-06-07T22:15:25.497Z,75.5
2023-06-07T22:20:09.712Z,76
2023-06-07T22:29:38.038Z,76.5
2023-06-07T22:34:22.248Z,77
2023-06-07T22:40:07.886Z,77.5
2023-06-07T22:44:52.061Z,78
2023-06-07T22:49:36.172Z,78
2023-06-07T22:54:20.409Z,78.5
2023-06-07T22:59:04.939Z,79.5
2023-06-07T23:03:49.102Z,79.5
2023-06-07T23:08:33.272Z,80.5
2023-06-07T23:13:17.427Z,80.5
2023-06-07T23:18:01.548Z,81
2023-06-07T23:22:45.749Z,81
2023-06-07T23:27:29.990Z,82
2023-06-07T23:32:14.073Z,82
2023-06-07T23:36:58.597Z,82
2023-06-07T23:41:42.791Z,82
2023-06-07T23:46:26.903Z,83
2023-06-07T23:51:11.170Z,83.5
2023-06-07T23:55:55.336Z,84
